Time;durP1;ratioP1;P1;durP2;ratioP2;P2;SDS_P1;SDS_P2;PMS_P1;PMS_P2;Temp;Humidity;BMP_temperature;BMP_pressure;BME280_temperature;BME280_humidity;BME280_pressure;Samples;Min_cycle;Max_cycle;Signal;HPM_P1;HPM_P2
2024/01/02 00:01:56;;;;;;;29.40;18.40;;;;;;;14.41;64.39;99182.38;1797451;80;21882;-93
2024/01/02 00:05:03;;;;;;;27.90;18.87;;;;;;;14.13;65.33;99174.62;1795915;78;21903;-93
2024/01/02 00:08:09;;;;;;;30.08;19.10;;;;;;;14.40;64.75;99181.53;1802683;79;21319;-93
2024/01/02 00:11:18;;;;;;;35.13;21.20;;;;;;;14.44;64.93;99183.27;1802888;79;21299;-92
2024/01/02 00:14:28;;;;;;;37.63;20.68;;;;;;;14.29;65.27;99185.02;1801340;79;22641;-93
2024/01/02 00:17:34;;;;;;;37.78;19.12;;;;;;;14.47;64.98;99187.79;1802103;79;21882;-93
2024/01/02 00:20:41;;;;;;;30.20;18.42;;;;;;;14.45;65.30;99188.56;1802536;79;21224;-93
2024/01/02 00:23:47;;;;;;;29.20;17.67;;;;;;;14.48;65.02;99177.66;1802498;78;21319;-92
2024/01/02 00:26:54;;;;;;;29.87;18.95;;;;;;;14.72;64.29;99178.64;1800421;79;21287;-92
2024/01/02 00:30:00;;;;;;;40.73;22.60;;;;;;;14.66;64.30;99180.94;1800751;79;21308;-93
2024/01/02 00:33:06;;;;;;;38.65;21.37;;;;;;;14.75;63.65;99173.52;1779833;79;21335;-94
2024/01/02 00:36:18;;;;;;;35.33;22.07;;;;;;;14.64;64.18;99173.47;1800332;79;21359;-93
2024/01/02 00:39:24;;;;;;;37.73;22.27;;;;;;;14.50;64.61;99170.87;1790609;78;21351;-94
2024/01/02 00:42:30;;;;;;;36.88;22.87;;;;;;;14.68;64.32;99167.27;1791098;80;21803;-94
2024/01/02 00:45:36;;;;;;;33.88;22.30;;;;;;;14.59;64.73;99167.28;1790676;80;21304;-93
2024/01/02 00:48:42;;;;;;;36.75;24.10;;;;;;;14.78;64.35;99176.36;1790946;80;21909;-94
2024/01/02 00:51:48;;;;;;;39.73;26.37;;;;;;;14.47;65.08;99178.16;1794510;79;21323;-93
2024/01/02 00:54:55;;;;;;;42.30;25.65;;;;;;;14.65;65.00;99175.14;1800510;79;21330;-93
2024/01/02 00:58:03;;;;;;;41.37;23.95;;;;;;;14.65;65.14;99167.72;1802255;79;21981;-93
2024/01/02 01:01:10;;;;;;;46.05;25.97;;;;;;;14.58;65.16;99172.45;1802404;79;21308;-92
2024/01/02 01:04:17;;;;;;;45.38;27.10;;;;;;;14.59;65.60;99171.41;1801676;79;21343;-93
2024/01/02 01:07:23;;;;;;;47.60;26.33;;;;;;;14.75;65.17;99157.00;1798537;78;22692;-93
2024/01/02 01:10:29;;;;;;;45.08;26.37;;;;;;;15.00;64.26;99173.94;1795348;80;21780;-93
2024/01/02 01:13:35;;;;;;;45.38;26.82;;;;;;;14.92;64.27;99161.34;1796973;78;21169;-92
2024/01/02 01:16:40;;;;;;;50.70;27.93;;;;;;;14.79;64.69;99161.52;1796716;78;21316;-92
2024/01/02 01:19:47;;;;;;;45.90;27.75;;;;;;;15.15;63.62;99158.36;1795839;80;21335;-93
2024/01/02 01:22:54;;;;;;;47.80;26.57;;;;;;;14.88;64.23;99151.88;1801128;79;21284;-93
2024/01/02 01:26:00;;;;;;;45.40;26.50;;;;;;;15.09;63.59;99152.72;1801907;79;21889;-92
2024/01/02 01:29:07;;;;;;;42.00;26.05;;;;;;;15.21;63.04;99142.30;1802193;78;21336;-93
2024/01/02 01:32:14;;;;;;;41.75;24.92;;;;;;;14.83;64.01;99134.67;1800398;79;21176;-94
2024/01/02 01:35:20;;;;;;;43.92;26.60;;;;;;;14.94;63.82;99137.16;1801352;79;21477;-93
2024/01/02 01:38:27;;;;;;;43.25;27.10;;;;;;;14.85;63.94;99134.97;1780172;79;21304;-93
2024/01/02 01:41:34;;;;;;;48.08;26.35;;;;;;;14.95;63.70;99125.61;1801160;79;21366;-93
2024/01/02 01:44:41;;;;;;;44.18;27.42;;;;;;;14.91;63.92;99122.48;1802426;79;21311;-93
2024/01/02 01:47:47;;;;;;;46.88;27.48;;;;;;;14.88;63.87;99124.34;1796938;79;21827;-93
2024/01/02 01:50:54;;;;;;;40.30;23.55;;;;;;;14.62;64.51;99117.80;1795083;79;21339;-94
2024/01/02 01:54:00;;;;;;;47.38;25.85;;;;;;;14.67;64.50;99116.56;1796537;80;21863;-93
2024/01/02 01:57:06;;;;;;;39.73;26.07;;;;;;;14.71;64.38;99107.62;1795121;79;21316;-93
2024/01/02 02:00:14;;;;;;;42.83;25.95;;;;;;;14.73;64.23;99117.04;1794916;80;21307;-93
2024/01/02 02:03:21;;;;;;;49.63;26.35;;;;;;;14.82;64.03;99115.65;1795037;79;21330;-94
2024/01/02 02:06:27;;;;;;;43.05;26.85;;;;;;;14.75;63.91;99118.47;1793702;78;21602;-94
2024/01/02 02:09:34;;;;;;;47.13;26.12;;;;;;;14.87;63.58;99125.42;1791150;80;21221;-93
2024/01/02 02:12:39;;;;;;;47.93;25.82;;;;;;;14.83;63.45;99114.56;1791238;78;21335;-93
2024/01/02 02:15:48;;;;;;;40.88;26.93;;;;;;;14.64;63.78;99108.80;1791550;80;21892;-93
2024/01/02 02:18:53;;;;;;;47.00;26.73;;;;;;;14.30;65.27;99102.81;1791159;78;21340;-93
2024/01/02 02:22:00;;;;;;;46.37;25.55;;;;;;;14.55;64.68;99102.23;1794305;79;21300;-93
2024/01/02 02:25:07;;;;;;;51.10;28.85;;;;;;;14.53;64.52;99097.47;1801471;79;21189;-93
2024/01/02 02:28:14;;;;;;;41.75;26.97;;;;;;;14.69;64.18;99094.64;1801277;79;21331;-93
2024/01/02 02:31:19;;;;;;;46.73;27.00;;;;;;;14.75;63.65;99086.81;1800011;79;21383;-94
2024/01/02 02:34:27;;;;;;;48.10;28.87;;;;;;;14.83;63.37;99100.27;1800923;79;21315;-93
2024/01/02 02:37:35;;;;;;;50.15;28.77;;;;;;;14.69;63.68;99097.93;1793828;79;21838;-94
2024/01/02 02:40:43;;;;;;;52.15;29.12;;;;;;;14.80;63.16;99102.63;1790503;80;21343;-94
2024/01/02 02:43:50;;;;;;;49.38;28.32;;;;;;;14.66;63.56;99090.96;1790731;78;21890;-93
2024/01/02 02:46:57;;;;;;;52.35;28.42;;;;;;;14.72;63.23;99084.52;1791125;80;21870;-93
2024/01/02 02:50:04;;;;;;;47.03;27.80;;;;;;;14.58;63.48;99089.90;1794025;78;21382;-93
2024/01/02 02:53:10;;;;;;;41.80;25.77;;;;;;;14.50;63.50;99085.58;1796797;79;21308;-93
2024/01/02 02:56:22;;;;;;;40.50;25.35;;;;;;;14.49;63.62;99084.41;1796834;78;21355;-94
2024/01/02 02:59:29;;;;;;;45.10;26.87;;;;;;;14.51;63.04;99086.41;1796698;80;21863;-93
2024/01/02 03:02:35;;;;;;;41.77;25.52;;;;;;;14.46;63.21;99084.32;1796675;78;21292;-93
2024/01/02 03:05:42;;;;;;;39.35;24.07;;;;;;;14.38;63.24;99086.00;1796632;80;21300;-93
2024/01/02 03:08:49;;;;;;;39.35;23.95;;;;;;;14.46;62.58;99077.44;1796732;78;21302;-94
2024/01/02 03:11:54;;;;;;;41.35;23.07;;;;;;;14.55;62.27;99092.59;1795228;78;21248;-92
2024/01/02 03:14:59;;;;;;;40.38;24.67;;;;;;;14.56;61.84;99094.27;1796653;80;21209;-93
2024/01/02 03:18:07;;;;;;;36.60;23.55;;;;;;;14.53;61.85;99081.50;1796705;78;21728;-94
2024/01/02 03:21:15;;;;;;;39.35;21.20;;;;;;;14.53;61.37;99098.02;1798203;79;21322;-94
2024/01/02 03:24:21;;;;;;;45.45;24.45;;;;;;;14.64;60.29;99090.91;1785840;79;21296;-93
2024/01/02 03:27:27;;;;;;;34.15;22.05;;;;;;;14.47;60.24;99090.12;1809532;79;21343;-94
2024/01/02 03:30:33;;;;;;;41.20;23.73;;;;;;;14.45;60.31;99081.27;1809714;79;21759;-92
2024/01/02 03:33:40;;;;;;;37.38;21.60;;;;;;;14.30;60.67;99071.18;1809704;79;21335;-93
2024/01/02 03:36:47;;;;;;;32.78;20.68;;;;;;;14.48;59.71;99079.45;1808958;78;21897;-92
2024/01/02 03:39:53;;;;;;;36.20;21.75;;;;;;;14.61;58.98;99096.86;1809708;79;21228;-93
2024/01/02 03:43:00;;;;;;;32.55;21.23;;;;;;;14.26;58.91;99101.61;1808059;78;22080;-92
2024/01/02 03:46:05;;;;;;;27.85;18.62;;;;;;;14.21;59.22;99100.05;1808023;78;21283;-94
2024/01/02 03:49:12;;;;;;;31.33;20.55;;;;;;;14.12;59.09;99104.21;1807513;79;21173;-93
2024/01/02 03:52:19;;;;;;;31.55;20.97;;;;;;;14.02;59.03;99106.95;1793743;78;21347;-92
2024/01/02 03:55:25;;;;;;;30.65;21.20;;;;;;;14.10;58.03;99098.08;1790756;80;21850;-93
2024/01/02 03:58:32;;;;;;;34.03;22.52;;;;;;;13.85;58.07;99119.59;1790584;78;21316;-93
2024/01/02 04:01:39;;;;;;;34.20;22.85;;;;;;;13.87;57.88;99109.20;1789010;80;21343;-93
2024/01/02 04:04:46;;;;;;;36.63;23.65;;;;;;;13.59;58.22;99113.80;1789033;80;21316;-93
2024/01/02 04:07:53;;;;;;;34.80;22.25;;;;;;;13.66;58.07;99116.50;1794221;80;21344;-93
2024/01/02 04:11:00;;;;;;;34.58;22.17;;;;;;;13.76;57.68;99119.58;1795996;80;21311;-92
2024/01/02 04:14:06;;;;;;;37.60;24.98;;;;;;;13.59;58.03;99122.04;1796243;80;21311;-92
2024/01/02 04:17:13;;;;;;;41.42;27.35;;;;;;;13.74;57.81;99121.19;1795770;80;21201;-93
2024/01/02 04:20:19;;;;;;;36.90;24.85;;;;;;;13.78;57.79;99111.94;1796915;79;21807;-93
2024/01/02 04:23:26;;;;;;;40.05;24.72;;;;;;;13.87;57.47;99108.37;1799590;79;21323;-93
2024/01/02 04:26:32;;;;;;;35.98;23.47;;;;;;;13.92;57.04;99106.61;1799269;79;21288;-93
2024/01/02 04:29:39;;;;;;;37.03;23.40;;;;;;;13.60;57.43;99106.39;1801790;79;21969;-93
2024/01/02 04:32:47;;;;;;;37.80;23.32;;;;;;;13.40;58.10;99101.91;1800785;79;21343;-93
2024/01/02 04:35:54;;;;;;;33.78;21.60;;;;;;;13.37;58.21;99104.30;1800074;79;21323;-94
2024/01/02 04:39:00;;;;;;;38.23;22.67;;;;;;;13.38;58.16;99109.55;1795304;80;21244;-92
2024/01/02 04:42:08;;;;;;;39.13;24.92;;;;;;;13.56;57.82;99112.89;1794662;79;21347;-93
2024/01/02 04:45:16;;;;;;;36.53;24.82;;;;;;;13.68;57.23;99112.45;1795427;79;21225;-93
2024/01/02 04:48:21;;;;;;;37.30;24.65;;;;;;;13.78;57.07;99129.80;1795935;79;21917;-92
2024/01/02 04:51:28;;;;;;;33.35;22.98;;;;;;;13.77;56.92;99130.33;1799919;79;21323;-92
2024/01/02 04:54:35;;;;;;;40.95;24.75;;;;;;;13.81;56.79;99136.23;1803520;78;21374;-93
2024/01/02 04:57:40;;;;;;;39.83;25.62;;;;;;;13.48;57.82;99131.86;1763890;79;21319;-93
2024/01/02 05:00:46;;;;;;;38.17;23.62;;;;;;;13.50;57.77;99154.47;1803901;79;21341;-93
2024/01/02 05:03:54;;;;;;;32.40;21.00;;;;;;;13.31;58.46;99145.82;1804219;79;21890;-94
2024/01/02 05:07:01;;;;;;;34.92;23.40;;;;;;;13.28;58.57;99161.39;1799680;79;21973;-94
2024/01/02 05:10:06;;;;;;;38.08;24.12;;;;;;;13.22;58.65;99158.14;1795558;78;21284;-92
2024/01/02 05:13:13;;;;;;;35.15;22.85;;;;;;;13.18;58.75;99158.27;1796526;80;21351;-94
2024/01/02 05:16:19;;;;;;;39.75;23.65;;;;;;;13.18;58.82;99163.75;1797247;80;21315;-94
2024/01/02 05:19:28;;;;;;;34.95;23.70;;;;;;;13.16;58.99;99168.61;1797161;80;21315;-94
2024/01/02 05:22:35;;;;;;;31.30;21.50;;;;;;;13.14;58.95;99161.97;1809248;78;21204;-94
2024/01/02 05:25:42;;;;;;;39.27;23.77;;;;;;;13.21;59.13;99166.88;1815753;78;21298;-92
2024/01/02 05:28:48;;;;;;;37.67;22.30;;;;;;;13.10;59.58;99166.22;1816305;79;21307;-93
2024/01/02 05:31:55;;;;;;;35.00;23.42;;;;;;;13.21;59.17;99168.25;1816267;78;21212;-93
2024/01/02 05:35:02;;;;;;;35.05;21.87;;;;;;;13.17;59.22;99162.05;1816258;79;21314;-92
2024/01/02 05:38:08;;;;;;;29.95;20.55;;;;;;;13.29;58.86;99172.14;1815877;78;21290;-93
2024/01/02 05:41:15;;;;;;;29.55;19.42;;;;;;;13.35;58.33;99175.06;1815179;78;21338;-93
2024/01/02 05:44:22;;;;;;;35.50;22.25;;;;;;;13.39;57.70;99182.64;1814721;79;21259;-94
2024/01/02 05:47:29;;;;;;;32.83;20.45;;;;;;;13.30;57.73;99179.84;1814262;79;21176;-93
2024/01/02 05:50:37;;;;;;;29.77;20.08;;;;;;;13.44;56.92;99193.80;1815877;78;22098;-93
2024/01/02 05:53:44;;;;;;;28.55;19.35;;;;;;;13.20;57.25;99197.31;1792641;79;21850;-92
2024/01/02 05:56:45;;;;;;;27.65;18.20;;;;;;;13.24;56.59;99195.84;1793998;80;21316;-94
2024/01/02 05:59:38;;;;;;;27.80;18.92;;;;;;;13.04;56.19;99200.05;1794362;78;21763;-92
2024/01/02 06:02:25;;;;;;;31.80;20.17;;;;;;;12.88;56.35;99204.12;1794196;80;21319;-93
2024/01/02 06:05:32;;;;;;;30.48;20.40;;;;;;;12.63;56.88;99205.39;1794461;80;21894;-93
2024/01/02 06:08:39;;;;;;;32.78;19.75;;;;;;;12.68;56.36;99207.48;1744958;82;21352;-92
2024/01/02 06:11:46;;;;;;;29.82;18.30;;;;;;;12.62;56.30;99209.73;1744884;82;22116;-93
2024/01/02 06:14:52;;;;;;;30.80;18.80;;;;;;;12.35;56.81;99213.06;1743702;81;21307;-92
2024/01/02 06:17:59;;;;;;;26.77;16.85;;;;;;;12.30;56.78;99214.23;1743526;82;21343;-93
2024/01/02 06:21:07;;;;;;;24.75;16.27;;;;;;;12.47;55.96;99214.95;1744357;82;21594;-92
2024/01/02 06:24:13;;;;;;;24.43;16.82;;;;;;;12.30;56.40;99229.32;1752615;82;21946;-93
2024/01/02 06:27:12;;;;;;;24.20;16.10;;;;;;;12.02;56.89;99225.77;1754097;80;21217;-94
2024/01/02 06:30:05;;;;;;;27.42;16.35;;;;;;;12.05;56.87;99223.67;1754210;82;21306;-93
2024/01/02 06:32:52;;;;;;;23.52;15.28;;;;;;;11.99;56.68;99228.91;1753418;82;21367;-93
2024/01/02 06:35:45;;;;;;;21.07;14.63;;;;;;;12.03;56.40;99223.33;1752180;82;22331;-94
2024/01/02 06:38:32;;;;;;;24.72;15.20;;;;;;;12.08;56.30;99225.44;1753244;82;21212;-92
2024/01/02 06:41:24;;;;;;;21.10;14.65;;;;;;;12.00;56.19;99225.14;1752328;82;21347;-92
2024/01/02 06:44:12;;;;;;;23.07;14.25;;;;;;;12.14;55.75;99219.62;1753255;82;21280;-93
2024/01/02 06:47:05;;;;;;;22.58;14.40;;;;;;;12.13;55.46;99227.54;1753320;82;21319;-92
2024/01/02 06:50:13;;;;;;;22.77;14.38;;;;;;;12.13;55.27;99242.61;1753809;82;21315;-93
2024/01/02 06:53:21;;;;;;;22.73;14.63;;;;;;;12.14;55.29;99247.03;1750885;80;21346;-92
2024/01/02 06:56:28;;;;;;;22.42;13.70;;;;;;;12.28;54.93;99239.14;1768989;81;21236;-93
2024/01/02 06:59:34;;;;;;;21.62;13.20;;;;;;;12.39;54.54;99244.49;1751214;81;21369;-93
2024/01/02 07:02:41;;;;;;;22.27;13.72;;;;;;;12.48;54.09;99248.16;1768422;81;21554;-93
2024/01/02 07:05:48;;;;;;;21.05;13.40;;;;;;;12.69;53.71;99246.20;1768278;81;21335;-93
2024/01/02 07:08:54;;;;;;;23.38;13.83;;;;;;;12.60;53.90;99246.95;1777278;79;21322;-93
2024/01/02 07:12:00;;;;;;;23.50;14.47;;;;;;;12.50;54.18;99251.52;1787320;79;21354;-94
2024/01/02 07:15:07;;;;;;;21.57;14.05;;;;;;;12.58;53.77;99245.50;1769081;81;21342;-93
2024/01/02 07:18:14;;;;;;;19.23;12.58;;;;;;;12.76;53.23;99240.17;1768917;81;21346;-94
2024/01/02 07:21:20;;;;;;;18.92;11.50;;;;;;;12.83;52.73;99243.72;1778384;79;21965;-93
2024/01/02 07:24:27;;;;;;;19.00;11.78;;;;;;;12.71;53.11;99251.80;1796944;79;21331;-93
2024/01/02 07:27:33;;;;;;;17.05;11.18;;;;;;;12.92;52.87;99251.19;1801413;79;21308;-92
2024/01/02 07:30:40;;;;;;;17.98;10.63;;;;;;;12.97;52.40;99246.73;1801459;79;21571;-92
2024/01/02 07:33:46;;;;;;;14.87;10.25;;;;;;;12.91;52.40;99269.56;1794578;79;21856;-92
2024/01/02 07:36:46;;;;;;;18.65;12.05;;;;;;;12.76;52.35;99275.84;1789691;79;21259;-93
2024/01/02 07:39:40;;;;;;;19.65;10.75;;;;;;;12.59;52.50;99282.84;1772894;79;21921;-94
2024/01/02 07:42:47;;;;;;;16.50;10.35;;;;;;;12.60;52.31;99283.98;1750295;81;21324;-92
2024/01/02 07:45:55;;;;;;;15.08;9.83;;;;;;;12.79;52.06;99273.48;1815626;78;21204;-92
2024/01/02 07:49:01;;;;;;;13.43;8.30;;;;;;;12.69;52.18;99284.61;1805376;79;21416;-92
2024/01/02 07:52:07;;;;;;;14.25;9.13;;;;;;;12.42;52.56;99298.39;1805894;78;21169;-92
2024/01/02 07:55:15;;;;;;;12.90;8.10;;;;;;;12.67;51.96;99294.97;1775511;78;21343;-92
2024/01/02 07:58:22;;;;;;;13.03;8.25;;;;;;;12.76;51.65;99297.80;1783081;78;21328;-92
2024/01/02 08:01:28;;;;;;;11.53;7.25;;;;;;;12.92;51.29;99294.56;1784984;79;21534;-94
2024/01/02 08:04:34;;;;;;;16.85;8.90;;;;;;;12.81;51.70;99281.53;1797940;79;21378;-94
2024/01/02 08:07:40;;;;;;;13.53;9.13;;;;;;;12.89;51.77;99286.79;1798085;79;21870;-92
2024/01/02 08:10:46;;;;;;;17.50;9.20;;;;;;;13.04;51.52;99290.10;1798618;79;21727;-93
2024/01/02 08:13:53;;;;;;;13.88;9.05;;;;;;;13.11;51.40;99291.97;1784048;79;21603;-92
2024/01/02 08:17:07;;;;;;;14.10;9.33;;;;;;;13.64;50.34;99291.72;1774499;79;21797;-92
2024/01/02 08:20:17;;;;;;;15.90;9.58;;;;;;;13.57;50.44;99284.06;1768271;81;22534;-93
2024/01/02 08:23:22;;;;;;;13.80;9.25;;;;;;;13.84;49.92;99291.08;1787118;78;21303;-93
2024/01/02 08:26:32;;;;;;;16.62;9.60;;;;;;;13.88;49.87;99288.70;1767809;81;21635;-92
2024/01/02 08:29:38;;;;;;;15.08;10.00;;;;;;;13.84;50.09;99288.33;1783143;78;21317;-93
2024/01/02 08:32:47;;;;;;;22.17;10.28;;;;;;;13.62;50.51;99280.96;1789143;79;21329;-92
2024/01/02 08:35:53;;;;;;;15.95;10.30;;;;;;;13.59;50.59;99275.90;1771560;79;22495;-93
2024/01/02 08:38:59;;;;;;;12.10;9.03;;;;;;;13.46;51.08;99271.34;1791476;78;21866;-91
2024/01/02 08:42:05;;;;;;;13.83;9.83;;;;;;;13.46;50.98;99263.11;1771852;78;21342;-93
2024/01/02 08:45:13;;;;;;;12.15;8.53;;;;;;;13.41;50.76;99264.30;1771804;80;21902;-94
2024/01/02 08:48:22;;;;;;;11.80;8.15;;;;;;;13.29;51.36;99266.88;1781095;80;21943;-93
2024/01/02 08:51:29;;;;;;;16.10;8.80;;;;;;;13.59;50.73;99277.27;1795451;79;21331;-93
2024/01/02 08:54:37;;;;;;;12.18;8.63;;;;;;;13.55;50.82;99281.02;1796662;79;21185;-93
2024/01/02 08:57:44;;;;;;;18.05;9.20;;;;;;;13.85;50.28;99270.77;1786669;79;22271;-93
2024/01/02 09:00:51;;;;;;;13.25;9.35;;;;;;;13.83;50.00;99263.80;1779484;80;21292;-93
2024/01/02 09:03:58;;;;;;;16.12;9.23;;;;;;;13.81;50.31;99266.78;1806910;79;21307;-93
2024/01/02 09:07:06;;;;;;;15.78;9.70;;;;;;;14.04;49.90;99268.39;1799532;79;21937;-93
2024/01/02 09:10:14;;;;;;;9.98;7.42;;;;;;;14.06;49.85;99271.75;1778406;80;22562;-93
2024/01/02 09:13:20;;;;;;;12.33;7.62;;;;;;;14.03;49.86;99266.72;1797478;79;21307;-93
2024/01/02 09:16:27;;;;;;;9.88;6.35;;;;;;;13.97;49.92;99265.38;1808402;79;21334;-93
2024/01/02 09:19:32;;;;;;;10.72;6.72;;;;;;;13.95;50.07;99264.77;1792350;79;21283;-92
2024/01/02 09:22:38;;;;;;;10.00;6.33;;;;;;;13.94;50.21;99262.56;1803346;79;21294;-93
2024/01/02 09:25:45;;;;;;;13.00;5.92;;;;;;;13.89;50.42;99257.43;1791078;79;21304;-94
2024/01/02 09:28:52;;;;;;;10.88;5.55;;;;;;;13.71;50.73;99260.94;1810862;79;21263;-94
2024/01/02 09:31:58;;;;;;;7.85;5.75;;;;;;;13.86;50.54;99260.61;1791638;79;21288;-92
2024/01/02 09:35:05;;;;;;;9.58;5.97;;;;;;;13.92;50.57;99258.34;1802432;78;21290;-92
2024/01/02 09:38:12;;;;;;;10.15;5.30;;;;;;;14.06;50.47;99258.00;1805318;77;21370;-93
2024/01/02 09:42:02;;;;;;;8.13;5.10;;;;;;;14.41;49.74;99260.23;1797069;79;21732;-92
2024/01/02 09:45:41;;;;;;;9.25;6.12;;;;;;;14.27;49.95;99255.40;1782428;80;21302;-93
2024/01/02 09:49:10;;;;;;;8.90;5.72;;;;;;;14.28;49.69;99250.73;1701191;82;21208;-93
2024/01/02 09:52:46;;;;;;;11.53;5.35;;;;;;;13.96;50.37;99247.20;1682168;84;21354;-92
2024/01/02 09:55:59;;;;;;;6.72;4.65;;;;;;;14.06;50.12;99243.41;1756257;81;21208;-92
2024/01/02 09:59:26;;;;;;;6.50;4.85;;;;;;;14.28;49.79;99245.23;1749302;82;21316;-92
2024/01/02 10:03:11;;;;;;;9.75;4.50;;;;;;;14.47;49.32;99239.23;1732927;82;21301;-92
2024/01/02 10:06:41;;;;;;;8.50;4.58;;;;;;;14.65;48.74;99241.19;1766461;81;21858;-92
2024/01/02 10:09:52;;;;;;;6.15;4.15;;;;;;;14.57;48.44;99244.53;1727097;83;21355;-93
2024/01/02 10:13:28;;;;;;;6.80;4.05;;;;;;;14.54;47.99;99256.02;1731840;81;21274;-92
2024/01/02 10:16:46;;;;;;;7.35;3.98;;;;;;;14.79;47.21;99255.95;1725794;80;21378;-95
2024/01/02 10:20:12;;;;;;;8.15;3.95;;;;;;;14.52;47.62;99255.92;1740791;81;21323;-93
2024/01/02 10:24:09;;;;;;;7.45;3.42;;;;;;;14.73;47.07;99249.99;1759973;81;22269;-94
2024/01/02 10:27:21;;;;;;;6.78;3.35;;;;;;;14.64;46.98;99245.02;1746620;81;21341;-93
2024/01/02 10:30:43;;;;;;;6.17;3.60;;;;;;;14.55;47.23;99251.35;1716378;82;21329;-92
2024/01/02 10:34:08;;;;;;;9.03;3.75;;;;;;;14.92;46.49;99240.36;1750674;81;21906;-93
2024/01/02 10:37:08;;;;;;;8.53;3.65;;;;;;;14.45;47.07;99245.50;1733213;81;21318;-93
2024/01/02 10:40:19;;;;;;;;;;;;;;;14.41;46.74;99242.36;1763235;81;21589;-93
2024/01/02 10:43:40;;;;;;;6.45;3.37;;;;;;;14.24;46.85;99244.84;1762297;81;20290;-93
2024/01/02 10:46:54;;;;;;;8.68;3.70;;;;;;;14.19;47.06;99234.21;1760949;81;21898;-92
2024/01/02 10:50:06;;;;;;;6.78;4.28;;;;;;;14.19;46.97;99234.21;1737611;81;21336;-93
2024/01/02 10:53:23;;;;;;;11.25;4.67;;;;;;;14.26;46.80;99234.47;1738593;82;21158;-93
2024/01/02 10:57:10;;;;;;;6.20;3.83;;;;;;;14.29;46.88;99234.53;1733096;81;21338;-95
2024/01/02 11:00:22;;;;;;;7.28;3.77;;;;;;;14.27;46.96;99236.69;1734196;82;21330;-93
2024/01/02 11:03:26;;;;;;;;;;;;;;;14.36;46.40;99229.82;1730072;82;21299;-94
2024/01/02 11:06:50;;;;;;;7.25;4.15;;;;;;;14.28;46.64;99227.36;1721277;82;20299;-92
2024/01/02 11:10:14;;;;;;;6.25;3.98;;;;;;;14.30;46.75;99217.83;1721910;82;21346;-93
2024/01/02 11:13:20;;;;;;;7.92;4.00;;;;;;;14.71;46.15;99215.49;1727833;82;21335;-93
2024/01/02 11:16:28;;;;;;;8.93;4.45;;;;;;;14.35;46.38;99221.27;1718814;82;21304;-93
2024/01/02 11:19:41;;;;;;;10.58;4.60;;;;;;;14.34;46.47;99220.94;1738251;82;21251;-94
2024/01/02 11:23:16;;;;;;;6.42;3.98;;;;;;;14.13;46.81;99219.47;1733094;82;21312;-94
2024/01/02 11:26:27;;;;;;;7.62;4.22;;;;;;;14.08;46.91;99222.05;1736832;82;21319;-93
2024/01/02 11:29:35;;;;;;;;;;;;;;;14.24;46.36;99217.33;1712809;84;21263;-93
2024/01/02 11:32:55;;;;;;;6.78;4.40;;;;;;;14.34;46.30;99218.19;1734740;82;20296;-94
2024/01/02 11:36:08;;;;;;;10.55;4.75;;;;;;;14.33;46.24;99216.52;1729780;82;21351;-93
2024/01/02 11:39:23;;;;;;;7.35;3.72;;;;;;;14.30;46.20;99222.45;1709070;84;21402;-92
2024/01/02 11:42:53;;;;;;;9.45;5.20;;;;;;;13.95;46.72;99224.37;1710097;84;21351;-92
2024/01/02 11:46:05;;;;;;;7.33;4.30;;;;;;;13.94;46.81;99217.20;1717767;82;21224;-92
2024/01/02 11:49:20;;;;;;;11.85;4.95;;;;;;;13.81;47.38;99220.05;1724901;82;21260;-92
2024/01/02 11:52:27;;;;;;;8.80;4.62;;;;;;;13.79;47.62;99227.70;1734102;82;21322;-92
2024/01/02 11:55:46;;;;;;;6.05;4.22;;;;;;;13.69;47.93;99231.45;1709071;82;21366;-93
2024/01/02 11:59:19;;;;;;;10.40;4.78;;;;;;;13.76;48.07;99222.09;1719276;82;21364;-92
2024/01/02 12:02:35;;;;;;;8.98;4.62;;;;;;;13.64;48.19;99221.66;1708157;82;21858;-92
2024/01/02 12:05:49;;;;;;;9.08;4.62;;;;;;;13.79;47.99;99226.32;1736137;82;21299;-93
2024/01/02 12:08:59;;;;;;;7.33;4.47;;;;;;;13.74;48.17;99225.62;1693318;82;21415;-93
2024/01/02 12:12:38;;;;;;;11.00;4.90;;;;;;;13.72;48.37;99228.27;1701385;82;21257;-93
2024/01/02 12:15:48;;;;;;;7.70;4.30;;;;;;;13.86;48.45;99221.59;1706938;83;21487;-93
2024/01/02 12:18:54;;;;;;;8.50;4.30;;;;;;;14.04;48.28;99229.91;1737304;82;21349;-92
2024/01/02 12:22:05;;;;;;;7.55;4.40;;;;;;;13.97;48.39;99235.13;1707384;82;21180;-92
2024/01/02 12:25:13;;;;;;;;;;;;;;;14.01;48.53;99235.00;1697277;83;21939;-92
2024/01/02 12:28:19;;;;;;;7.25;4.20;;;;;;;14.19;48.28;99236.42;1707120;83;20804;-93
2024/01/02 12:31:41;;;;;;;8.10;4.15;;;;;;;14.14;48.52;99238.17;1740434;82;21264;-93
2024/01/02 12:35:10;;;;;;;6.78;4.28;;;;;;;14.09;48.62;99233.34;1692644;83;21326;-93
2024/01/02 12:38:27;;;;;;;8.98;4.60;;;;;;;14.20;48.47;99238.64;1733762;82;21342;-93
2024/01/02 12:41:36;;;;;;;9.70;4.83;;;;;;;14.25;48.55;99233.30;1731871;82;21343;-93
2024/01/02 12:44:47;;;;;;;7.72;4.22;;;;;;;14.05;48.80;99226.61;1701989;82;21328;-93
2024/01/02 12:47:53;;;;;;;9.30;5.50;;;;;;;14.23;48.03;99232.70;1741709;82;21308;-92
2024/01/02 12:51:01;;;;;;;8.25;4.97;;;;;;;13.80;48.81;99232.12;1740819;82;21881;-93
2024/01/02 12:54:09;;;;;;;10.58;4.80;;;;;;;13.61;49.16;99233.95;1715849;82;21391;-92
2024/01/02 12:57:16;;;;;;;9.60;4.62;;;;;;;13.79;48.60;99227.16;1681655;85;21593;-93
2024/01/02 13:00:23;;;;;;;8.78;4.60;;;;;;;13.73;48.73;99232.16;1690754;83;21326;-94
2024/01/02 13:03:29;;;;;;;9.50;4.17;;;;;;;13.71;48.65;99234.30;1715310;80;22474;-94
2024/01/02 13:06:35;;;;;;;7.67;4.03;;;;;;;13.91;48.39;99230.55;1705044;83;21327;-93
2024/01/02 13:09:43;;;;;;;8.08;4.33;;;;;;;14.05;48.25;99225.23;1691007;83;21229;-93
2024/01/02 13:12:53;;;;;;;12.65;5.10;;;;;;;14.01;48.17;99233.09;1740468;82;21312;-93
2024/01/02 13:16:00;;;;;;;9.63;4.37;;;;;;;13.51;49.16;99226.20;1745851;82;21361;-95
2024/01/02 13:19:07;;;;;;;10.08;4.53;;;;;;;13.40;49.50;99220.02;1726658;82;21369;-94
2024/01/02 13:22:14;;;;;;;9.35;4.53;;;;;;;13.64;49.01;99228.52;1721677;83;21578;-94
2024/01/02 13:25:25;;;;;;;8.70;4.72;;;;;;;13.51;49.16;99220.70;1689997;83;21343;-95
2024/01/02 13:28:32;;;;;;;9.38;4.90;;;;;;;13.69;48.85;99224.58;1719672;83;21336;-93
2024/01/02 13:31:38;;;;;;;9.75;4.33;;;;;;;13.29;49.38;99215.24;1737498;82;21316;-94
2024/01/02 13:34:44;;;;;;;8.90;5.78;;;;;;;13.41;48.83;99209.37;1735264;82;22117;-94
2024/01/02 13:37:50;;;;;;;11.60;5.33;;;;;;;13.12;49.12;99209.37;1721828;83;21876;-93
2024/01/02 13:40:49;;;;;;;9.73;4.58;;;;;;;12.58;50.18;99207.94;1726080;83;21393;-94
2024/01/02 13:43:42;;;;;;;10.60;4.95;;;;;;;12.52;50.33;99207.44;1725501;83;21245;-93
2024/01/02 13:46:28;;;;;;;12.07;4.62;;;;;;;12.49;50.20;99210.07;1717073;82;21354;-92
2024/01/02 13:49:22;;;;;;;11.03;4.60;;;;;;;12.54;50.09;99210.27;1711140;82;21293;-93
2024/01/02 13:52:35;;;;;;;9.38;4.60;;;;;;;12.57;49.86;99213.12;1732781;81;21582;-93
2024/01/02 13:55:43;;;;;;;9.53;5.15;;;;;;;12.71;49.70;99221.62;1717472;82;21325;-92
2024/01/02 13:59:01;;;;;;;13.28;5.70;;;;;;;12.70;49.53;99225.42;1736024;82;21325;-93
2024/01/02 14:02:08;;;;;;;9.50;4.75;;;;;;;12.81;49.31;99226.64;1717560;82;21968;-93
2024/01/02 14:05:14;;;;;;;16.05;4.80;;;;;;;12.43;50.20;99229.30;1711613;82;22185;-93
2024/01/02 14:08:25;;;;;;;11.25;5.10;;;;;;;12.51;50.18;99228.55;1737122;82;21307;-93
2024/01/02 14:11:25;;;;;;;9.53;5.72;;;;;;;12.48;50.24;99220.73;1798656;79;21834;-93
2024/01/02 14:14:39;;;;;;;12.20;4.70;;;;;;;12.37;50.34;99225.48;1798730;79;21296;-95
2024/01/02 14:17:47;;;;;;;11.40;4.80;;;;;;;12.25;50.62;99224.48;1800161;79;21573;-93
2024/01/02 14:21:02;;;;;;;10.28;4.97;;;;;;;12.24;50.66;99222.80;1768611;80;21375;-93
2024/01/02 14:24:18;;;;;;;11.68;5.58;;;;;;;12.28;50.76;99224.91;1794959;80;21311;-93
2024/01/02 14:27:28;;;;;;;14.85;6.35;;;;;;;12.31;50.66;99218.66;1794014;80;21810;-94
2024/01/02 14:30:40;;;;;;;11.70;5.20;;;;;;;12.32;50.62;99218.97;1795293;80;21315;-93
2024/01/02 14:34:29;;;;;;;14.40;4.87;;;;;;;12.23;50.62;99219.72;1796529;80;21209;-94
2024/01/02 14:37:57;;;;;;;11.57;5.50;;;;;;;12.03;50.77;99212.89;1795133;80;21225;-93